sensor_id;sensor_type;location;lat;lon;timestamp;P1;durP1;ratioP1;P2;durP2;ratioP2
18360;SDS011;9308;48.550;9.108;2022-08-01T00:00:21;2.97;;;2.73;;
18360;SDS011;9308;48.550;9.108;2022-08-01T00:02:46;3.43;;;3.13;;
18360;SDS011;9308;48.550;9.108;2022-08-01T00:05:12;3.50;;;3.20;;
18360;SDS011;9308;48.550;9.108;2022-08-01T00:07:38;3.60;;;3.30;;
18360;SDS011;9308;48.550;9.108;2022-08-01T00:10:04;4.57;;;2.83;;
18360;SDS011;9308;48.550;9.108;2022-08-01T00:12:31;3.50;;;3.20;;
18360;SDS011;9308;48.550;9.108;2022-08-01T00:14:57;3.50;;;3.30;;
18360;SDS011;9308;48.550;9.108;2022-08-01T00:17:22;3.53;;;3.33;;
18360;SDS011;9308;48.550;9.108;2022-08-01T00:19:47;3.90;;;3.60;;
18360;SDS011;9308;48.550;9.108;2022-08-01T00:22:13;3.40;;;3.10;;
18360;SDS011;9308;48.550;9.108;2022-08-01T00:24:38;3.30;;;3.07;;
18360;SDS011;9308;48.550;9.108;2022-08-01T00:27:04;3.50;;;3.20;;
18360;SDS011;9308;48.550;9.108;2022-08-01T00:29:29;3.60;;;3.30;;
18360;SDS011;9308;48.550;9.108;2022-08-01T00:31:54;3.67;;;3.30;;
18360;SDS011;9308;48.550;9.108;2022-08-01T00:34:20;3.53;;;3.33;;
18360;SDS011;9308;48.550;9.108;2022-08-01T00:36:45;3.90;;;3.60;;
18360;SDS011;9308;48.550;9.108;2022-08-01T00:39:11;3.37;;;3.17;;
18360;SDS011;9308;48.550;9.108;2022-08-01T00:41:37;3.40;;;3.20;;
18360;SDS011;9308;48.550;9.108;2022-08-01T00:44:06;3.10;;;2.90;;
18360;SDS011;9308;48.550;9.108;2022-08-01T00:46:31;3.20;;;3.00;;
18360;SDS011;9308;48.550;9.108;2022-08-01T00:48:58;4.27;;;3.90;;
18360;SDS011;9308;48.550;9.108;2022-08-01T00:51:24;5.80;;;3.80;;
18360;SDS011;9308;48.550;9.108;2022-08-01T00:53:51;4.10;;;3.90;;
18360;SDS011;9308;48.550;9.108;2022-08-01T00:56:16;4.37;;;3.97;;
18360;SDS011;9308;48.550;9.108;2022-08-01T00:58:43;3.30;;;3.10;;
18360;SDS011;9308;48.550;9.108;2022-08-01T01:01:09;3.63;;;3.30;;
18360;SDS011;9308;48.550;9.108;2022-08-01T01:03:35;3.77;;;3.47;;
18360;SDS011;9308;48.550;9.108;2022-08-01T01:09:02;4.10;;;3.80;;
18360;SDS011;9308;48.550;9.108;2022-08-01T01:17:37;4.07;;;3.77;;
18360;SDS011;9308;48.550;9.108;2022-08-01T01:20:06;4.17;;;3.87;;
18360;SDS011;9308;48.550;9.108;2022-08-01T01:22:36;4.17;;;3.87;;
18360;SDS011;9308;48.550;9.108;2022-08-01T01:25:19;4.10;;;3.70;;
18360;SDS011;9308;48.550;9.108;2022-08-01T01:27:57;4.20;;;3.90;;
18360;SDS011;9308;48.550;9.108;2022-08-01T01:30:30;3.70;;;3.50;;
18360;SDS011;9308;48.550;9.108;2022-08-01T01:32:58;4.70;;;4.37;;
18360;SDS011;9308;48.550;9.108;2022-08-01T01:35:27;3.80;;;3.50;;
18360;SDS011;9308;48.550;9.108;2022-08-01T01:38:39;4.10;;;3.80;;
18360;SDS011;9308;48.550;9.108;2022-08-01T01:40:54;3.50;;;3.30;;
18360;SDS011;9308;48.550;9.108;2022-08-01T01:43:22;3.60;;;3.40;;
18360;SDS011;9308;48.550;9.108;2022-08-01T01:45:49;5.37;;;3.97;;
18360;SDS011;9308;48.550;9.108;2022-08-01T01:48:17;4.20;;;3.80;;
18360;SDS011;9308;48.550;9.108;2022-08-01T01:50:47;4.10;;;3.70;;
18360;SDS011;9308;48.550;9.108;2022-08-01T01:53:15;4.23;;;3.83;;
18360;SDS011;9308;48.550;9.108;2022-08-01T01:55:43;4.20;;;3.90;;
18360;SDS011;9308;48.550;9.108;2022-08-01T01:58:12;3.93;;;3.50;;
18360;SDS011;9308;48.550;9.108;2022-08-01T02:00:38;4.23;;;3.83;;
18360;SDS011;9308;48.550;9.108;2022-08-01T02:03:08;3.90;;;3.60;;
18360;SDS011;9308;48.550;9.108;2022-08-01T02:05:35;4.00;;;3.70;;
18360;SDS011;9308;48.550;9.108;2022-08-01T02:08:03;4.80;;;4.40;;
18360;SDS011;9308;48.550;9.108;2022-08-01T02:10:31;4.10;;;3.80;;
18360;SDS011;9308;48.550;9.108;2022-08-01T02:12:57;3.80;;;3.57;;
18360;SDS011;9308;48.550;9.108;2022-08-01T02:15:24;4.77;;;4.27;;
18360;SDS011;9308;48.550;9.108;2022-08-01T02:17:53;4.10;;;3.80;;
18360;SDS011;9308;48.550;9.108;2022-08-01T02:20:21;4.70;;;3.90;;
18360;SDS011;9308;48.550;9.108;2022-08-01T02:22:48;4.47;;;4.07;;
18360;SDS011;9308;48.550;9.108;2022-08-01T02:25:19;4.60;;;4.20;;
18360;SDS011;9308;48.550;9.108;2022-08-01T02:28:55;4.50;;;4.20;;
18360;SDS011;9308;48.550;9.108;2022-08-01T02:31:04;4.23;;;3.93;;
18360;SDS011;9308;48.550;9.108;2022-08-01T02:33:34;4.30;;;4.00;;
18360;SDS011;9308;48.550;9.108;2022-08-01T02:36:03;4.07;;;3.73;;
18360;SDS011;9308;48.550;9.108;2022-08-01T02:38:32;3.90;;;3.60;;
18360;SDS011;9308;48.550;9.108;2022-08-01T02:41:07;4.60;;;4.30;;
18360;SDS011;9308;48.550;9.108;2022-08-01T02:43:36;3.93;;;3.73;;
18360;SDS011;9308;48.550;9.108;2022-08-01T02:46:04;4.93;;;4.40;;
18360;SDS011;9308;48.550;9.108;2022-08-01T02:48:32;4.20;;;3.90;;
18360;SDS011;9308;48.550;9.108;2022-08-01T02:51:00;4.87;;;4.47;;
18360;SDS011;9308;48.550;9.108;2022-08-01T02:53:27;4.80;;;4.47;;
18360;SDS011;9308;48.550;9.108;2022-08-01T02:55:57;4.87;;;4.40;;
18360;SDS011;9308;48.550;9.108;2022-08-01T02:58:24;4.27;;;3.93;;
18360;SDS011;9308;48.550;9.108;2022-08-01T03:00:50;4.57;;;3.77;;
18360;SDS011;9308;48.550;9.108;2022-08-01T03:03:17;4.10;;;3.80;;
18360;SDS011;9308;48.550;9.108;2022-08-01T03:05:43;4.40;;;4.00;;
18360;SDS011;9308;48.550;9.108;2022-08-01T03:08:10;4.27;;;4.00;;
18360;SDS011;9308;48.550;9.108;2022-08-01T03:10:37;4.73;;;4.43;;
18360;SDS011;9308;48.550;9.108;2022-08-01T03:13:05;4.43;;;4.03;;
18360;SDS011;9308;48.550;9.108;2022-08-01T03:15:33;4.70;;;4.40;;
18360;SDS011;9308;48.550;9.108;2022-08-01T03:18:01;4.30;;;3.90;;
18360;SDS011;9308;48.550;9.108;2022-08-01T03:20:29;4.77;;;4.47;;
18360;SDS011;9308;48.550;9.108;2022-08-01T03:22:56;4.80;;;4.40;;
18360;SDS011;9308;48.550;9.108;2022-08-01T03:25:23;6.03;;;3.97;;
18360;SDS011;9308;48.550;9.108;2022-08-01T03:27:52;4.00;;;3.70;;
18360;SDS011;9308;48.550;9.108;2022-08-01T03:30:21;4.20;;;3.90;;
18360;SDS011;9308;48.550;9.108;2022-08-01T03:32:48;4.67;;;4.37;;
18360;SDS011;9308;48.550;9.108;2022-08-01T03:35:14;5.00;;;4.60;;
18360;SDS011;9308;48.550;9.108;2022-08-01T03:37:44;4.70;;;4.30;;
18360;SDS011;9308;48.550;9.108;2022-08-01T03:40:25;4.70;;;4.30;;
18360;SDS011;9308;48.550;9.108;2022-08-01T03:42:58;4.40;;;4.00;;
18360;SDS011;9308;48.550;9.108;2022-08-01T03:45:29;4.97;;;4.43;;
18360;SDS011;9308;48.550;9.108;2022-08-01T03:47:59;4.37;;;4.00;;
18360;SDS011;9308;48.550;9.108;2022-08-01T03:50:27;4.33;;;4.03;;
18360;SDS011;9308;48.550;9.108;2022-08-01T03:52:56;4.60;;;4.30;;
18360;SDS011;9308;48.550;9.108;2022-08-01T03:55:24;4.20;;;3.90;;
18360;SDS011;9308;48.550;9.108;2022-08-01T03:57:50;5.00;;;4.60;;
18360;SDS011;9308;48.550;9.108;2022-08-01T04:00:16;4.33;;;3.93;;
18360;SDS011;9308;48.550;9.108;2022-08-01T04:02:47;4.60;;;4.20;;
18360;SDS011;9308;48.550;9.108;2022-08-01T04:05:13;5.30;;;4.80;;
18360;SDS011;9308;48.550;9.108;2022-08-01T04:07:39;5.17;;;4.80;;
18360;SDS011;9308;48.550;9.108;2022-08-01T04:10:07;4.87;;;4.33;;
18360;SDS011;9308;48.550;9.108;2022-08-01T04:12:33;5.07;;;4.60;;
18360;SDS011;9308;48.550;9.108;2022-08-01T04:14:59;5.23;;;4.83;;
18360;SDS011;9308;48.550;9.108;2022-08-01T04:17:24;5.30;;;4.90;;
18360;SDS011;9308;48.550;9.108;2022-08-01T04:19:50;4.87;;;4.53;;
18360;SDS011;9308;48.550;9.108;2022-08-01T04:22:15;5.03;;;4.73;;
18360;SDS011;9308;48.550;9.108;2022-08-01T04:24:42;5.50;;;5.00;;
18360;SDS011;9308;48.550;9.108;2022-08-01T04:27:14;5.50;;;5.10;;
18360;SDS011;9308;48.550;9.108;2022-08-01T04:29:44;5.80;;;5.30;;
18360;SDS011;9308;48.550;9.108;2022-08-01T04:32:11;5.50;;;5.20;;
18360;SDS011;9308;48.550;9.108;2022-08-01T04:34:39;4.70;;;4.40;;
18360;SDS011;9308;48.550;9.108;2022-08-01T04:37:08;8.10;;;4.53;;
18360;SDS011;9308;48.550;9.108;2022-08-01T04:39:35;4.80;;;4.50;;
18360;SDS011;9308;48.550;9.108;2022-08-01T04:42:02;5.13;;;4.73;;
18360;SDS011;9308;48.550;9.108;2022-08-01T04:44:30;4.90;;;4.50;;
18360;SDS011;9308;48.550;9.108;2022-08-01T04:46:58;5.30;;;4.90;;
18360;SDS011;9308;48.550;9.108;2022-08-01T04:49:28;4.87;;;4.47;;
18360;SDS011;9308;48.550;9.108;2022-08-01T04:51:56;5.80;;;5.40;;
18360;SDS011;9308;48.550;9.108;2022-08-01T04:54:28;5.33;;;4.83;;
18360;SDS011;9308;48.550;9.108;2022-08-01T04:56:55;5.50;;;4.57;;
18360;SDS011;9308;48.550;9.108;2022-08-01T04:59:25;4.93;;;4.53;;
18360;SDS011;9308;48.550;9.108;2022-08-01T05:04:40;5.43;;;5.03;;
18360;SDS011;9308;48.550;9.108;2022-08-01T05:07:06;5.60;;;5.10;;
18360;SDS011;9308;48.550;9.108;2022-08-01T05:09:32;5.27;;;4.87;;
18360;SDS011;9308;48.550;9.108;2022-08-01T05:11:58;5.27;;;4.87;;
18360;SDS011;9308;48.550;9.108;2022-08-01T05:14:26;5.40;;;4.90;;
18360;SDS011;9308;48.550;9.108;2022-08-01T05:16:52;5.37;;;4.93;;
18360;SDS011;9308;48.550;9.108;2022-08-01T05:19:17;5.07;;;4.77;;
18360;SDS011;9308;48.550;9.108;2022-08-01T05:21:43;5.17;;;4.77;;
18360;SDS011;9308;48.550;9.108;2022-08-01T05:24:08;5.10;;;4.80;;
18360;SDS011;9308;48.550;9.108;2022-08-01T05:26:34;5.90;;;5.40;;
18360;SDS011;9308;48.550;9.108;2022-08-01T05:28:59;5.30;;;4.90;;
18360;SDS011;9308;48.550;9.108;2022-08-01T05:31:25;5.63;;;4.50;;
18360;SDS011;9308;48.550;9.108;2022-08-01T05:33:50;5.27;;;4.87;;
18360;SDS011;9308;48.550;9.108;2022-08-01T05:36:16;5.27;;;4.87;;
18360;SDS011;9308;48.550;9.108;2022-08-01T05:38:41;5.43;;;4.93;;
18360;SDS011;9308;48.550;9.108;2022-08-01T05:41:07;5.90;;;4.63;;
18360;SDS011;9308;48.550;9.108;2022-08-01T05:43:32;5.57;;;5.07;;
18360;SDS011;9308;48.550;9.108;2022-08-01T05:45:57;5.70;;;5.10;;
18360;SDS011;9308;48.550;9.108;2022-08-01T05:48:23;5.97;;;5.57;;
18360;SDS011;9308;48.550;9.108;2022-08-01T05:50:49;5.50;;;5.00;;
18360;SDS011;9308;48.550;9.108;2022-08-01T05:53:15;5.33;;;4.97;;
18360;SDS011;9308;48.550;9.108;2022-08-01T05:55:40;5.20;;;4.90;;
18360;SDS011;9308;48.550;9.108;2022-08-01T05:58:05;6.27;;;5.63;;
18360;SDS011;9308;48.550;9.108;2022-08-01T06:00:31;5.43;;;5.03;;
18360;SDS011;9308;48.550;9.108;2022-08-01T06:02:56;5.43;;;5.03;;
18360;SDS011;9308;48.550;9.108;2022-08-01T06:05:22;5.47;;;4.97;;
18360;SDS011;9308;48.550;9.108;2022-08-01T06:07:47;5.70;;;5.30;;
18360;SDS011;9308;48.550;9.108;2022-08-01T06:10:12;5.13;;;4.73;;
18360;SDS011;9308;48.550;9.108;2022-08-01T06:12:38;5.10;;;4.70;;
18360;SDS011;9308;48.550;9.108;2022-08-01T06:15:04;5.33;;;4.93;;
18360;SDS011;9308;48.550;9.108;2022-08-01T06:17:30;5.23;;;4.83;;
18360;SDS011;9308;48.550;9.108;2022-08-01T06:19:56;5.13;;;4.73;;
18360;SDS011;9308;48.550;9.108;2022-08-01T06:22:21;5.20;;;4.80;;
18360;SDS011;9308;48.550;9.108;2022-08-01T06:27:19;5.40;;;5.00;;
18360;SDS011;9308;48.550;9.108;2022-08-01T06:29:44;5.93;;;4.90;;
18360;SDS011;9308;48.550;9.108;2022-08-01T06:32:10;5.60;;;5.10;;
18360;SDS011;9308;48.550;9.108;2022-08-01T06:34:35;5.47;;;5.07;;
18360;SDS011;9308;48.550;9.108;2022-08-01T06:37:01;6.00;;;5.40;;
18360;SDS011;9308;48.550;9.108;2022-08-01T06:39:26;5.73;;;5.30;;
18360;SDS011;9308;48.550;9.108;2022-08-01T06:41:52;5.70;;;5.23;;
18360;SDS011;9308;48.550;9.108;2022-08-01T06:44:17;5.97;;;5.57;;
18360;SDS011;9308;48.550;9.108;2022-08-01T06:46:42;5.80;;;5.40;;
18360;SDS011;9308;48.550;9.108;2022-08-01T06:49:08;7.57;;;5.40;;
18360;SDS011;9308;48.550;9.108;2022-08-01T06:51:33;5.30;;;4.90;;
18360;SDS011;9308;48.550;9.108;2022-08-01T06:53:59;6.63;;;5.03;;
18360;SDS011;9308;48.550;9.108;2022-08-01T06:56:24;5.53;;;5.13;;
18360;SDS011;9308;48.550;9.108;2022-08-01T06:58:50;5.93;;;5.40;;
18360;SDS011;9308;48.550;9.108;2022-08-01T07:01:15;7.60;;;5.70;;
18360;SDS011;9308;48.550;9.108;2022-08-01T07:03:41;5.43;;;5.00;;
18360;SDS011;9308;48.550;9.108;2022-08-01T07:06:06;6.77;;;5.73;;
18360;SDS011;9308;48.550;9.108;2022-08-01T07:08:32;5.17;;;4.67;;
18360;SDS011;9308;48.550;9.108;2022-08-01T07:10:58;6.83;;;5.70;;
18360;SDS011;9308;48.550;9.108;2022-08-01T07:13:27;6.90;;;5.67;;
18360;SDS011;9308;48.550;9.108;2022-08-01T07:15:56;10.00;;;5.83;;
18360;SDS011;9308;48.550;9.108;2022-08-01T07:18:21;5.60;;;5.07;;
18360;SDS011;9308;48.550;9.108;2022-08-01T07:20:47;5.30;;;4.90;;
18360;SDS011;9308;48.550;9.108;2022-08-01T07:23:13;5.97;;;5.47;;
18360;SDS011;9308;48.550;9.108;2022-08-01T07:25:39;6.13;;;5.60;;
18360;SDS011;9308;48.550;9.108;2022-08-01T07:28:04;7.23;;;5.07;;
18360;SDS011;9308;48.550;9.108;2022-08-01T07:30:30;5.43;;;5.00;;
18360;SDS011;9308;48.550;9.108;2022-08-01T07:32:55;4.97;;;4.50;;
18360;SDS011;9308;48.550;9.108;2022-08-01T07:35:21;5.50;;;5.10;;
18360;SDS011;9308;48.550;9.108;2022-08-01T07:37:47;4.87;;;4.43;;
18360;SDS011;9308;48.550;9.108;2022-08-01T07:40:12;5.07;;;4.67;;
18360;SDS011;9308;48.550;9.108;2022-08-01T07:42:38;4.93;;;4.43;;
18360;SDS011;9308;48.550;9.108;2022-08-01T07:45:03;4.70;;;4.40;;
18360;SDS011;9308;48.550;9.108;2022-08-01T07:47:29;5.03;;;4.73;;
18360;SDS011;9308;48.550;9.108;2022-08-01T07:50:01;4.90;;;4.60;;
18360;SDS011;9308;48.550;9.108;2022-08-01T07:52:28;4.90;;;4.40;;
18360;SDS011;9308;48.550;9.108;2022-08-01T07:54:55;4.50;;;4.17;;
18360;SDS011;9308;48.550;9.108;2022-08-01T07:57:22;4.03;;;3.73;;
18360;SDS011;9308;48.550;9.108;2022-08-01T07:59:48;4.57;;;4.17;;
18360;SDS011;9308;48.550;9.108;2022-08-01T08:02:14;4.30;;;3.80;;
18360;SDS011;9308;48.550;9.108;2022-08-01T08:04:39;4.37;;;4.07;;
18360;SDS011;9308;48.550;9.108;2022-08-01T08:07:04;4.90;;;4.03;;
18360;SDS011;9308;48.550;9.108;2022-08-01T08:09:30;5.03;;;4.53;;
18360;SDS011;9308;48.550;9.108;2022-08-01T08:11:55;4.07;;;3.77;;
18360;SDS011;9308;48.550;9.108;2022-08-01T08:14:21;3.47;;;3.17;;
18360;SDS011;9308;48.550;9.108;2022-08-01T08:16:49;4.37;;;4.07;;
18360;SDS011;9308;48.550;9.108;2022-08-01T08:19:14;3.80;;;3.50;;
18360;SDS011;9308;48.550;9.108;2022-08-01T08:21:40;4.13;;;3.83;;
18360;SDS011;9308;48.550;9.108;2022-08-01T08:24:06;4.13;;;3.83;;
18360;SDS011;9308;48.550;9.108;2022-08-01T08:26:48;4.30;;;4.00;;
18360;SDS011;9308;48.550;9.108;2022-08-01T08:29:15;4.53;;;4.13;;
18360;SDS011;9308;48.550;9.108;2022-08-01T08:31:41;4.30;;;3.90;;
18360;SDS011;9308;48.550;9.108;2022-08-01T08:34:07;4.20;;;3.90;;
18360;SDS011;9308;48.550;9.108;2022-08-01T08:36:32;4.43;;;4.10;;
18360;SDS011;9308;48.550;9.108;2022-08-01T08:38:58;4.27;;;3.97;;
18360;SDS011;9308;48.550;9.108;2022-08-01T08:41:25;4.23;;;3.90;;
18360;SDS011;9308;48.550;9.108;2022-08-01T08:43:51;4.30;;;4.00;;
18360;SDS011;9308;48.550;9.108;2022-08-01T08:46:17;4.30;;;4.00;;
18360;SDS011;9308;48.550;9.108;2022-08-01T08:48:43;4.43;;;4.13;;
18360;SDS011;9308;48.550;9.108;2022-08-01T08:51:10;4.70;;;4.30;;
18360;SDS011;9308;48.550;9.108;2022-08-01T08:53:38;4.10;;;3.80;;
18360;SDS011;9308;48.550;9.108;2022-08-01T08:56:08;4.30;;;4.00;;
18360;SDS011;9308;48.550;9.108;2022-08-01T08:58:36;4.53;;;3.80;;
18360;SDS011;9308;48.550;9.108;2022-08-01T09:01:06;5.00;;;4.43;;
18360;SDS011;9308;48.550;9.108;2022-08-01T09:03:33;4.80;;;4.20;;
18360;SDS011;9308;48.550;9.108;2022-08-01T09:05:59;4.50;;;4.20;;
18360;SDS011;9308;48.550;9.108;2022-08-01T09:08:25;4.10;;;3.80;;
18360;SDS011;9308;48.550;9.108;2022-08-01T09:10:51;4.53;;;4.17;;
18360;SDS011;9308;48.550;9.108;2022-08-01T09:13:16;4.80;;;3.93;;
18360;SDS011;9308;48.550;9.108;2022-08-01T09:15:43;4.90;;;4.50;;
18360;SDS011;9308;48.550;9.108;2022-08-01T09:21:08;4.30;;;4.00;;
18360;SDS011;9308;48.550;9.108;2022-08-01T09:23:35;4.00;;;3.80;;
18360;SDS011;9308;48.550;9.108;2022-08-01T09:26:05;4.73;;;3.90;;
18360;SDS011;9308;48.550;9.108;2022-08-01T09:28:31;4.40;;;4.10;;
18360;SDS011;9308;48.550;9.108;2022-08-01T09:30:57;4.20;;;3.90;;
18360;SDS011;9308;48.550;9.108;2022-08-01T09:33:23;4.63;;;4.23;;
18360;SDS011;9308;48.550;9.108;2022-08-01T09:35:55;4.00;;;3.80;;
18360;SDS011;9308;48.550;9.108;2022-08-01T09:38:25;4.20;;;4.00;;
18360;SDS011;9308;48.550;9.108;2022-08-01T09:43:22;4.63;;;3.53;;
18360;SDS011;9308;48.550;9.108;2022-08-01T09:45:48;4.70;;;3.90;;
18360;SDS011;9308;48.550;9.108;2022-08-01T09:48:14;3.83;;;3.50;;
18360;SDS011;9308;48.550;9.108;2022-08-01T09:50:47;4.53;;;4.23;;
18360;SDS011;9308;48.550;9.108;2022-08-01T09:53:14;4.17;;;3.87;;
18360;SDS011;9308;48.550;9.108;2022-08-01T09:55:41;4.10;;;3.50;;
18360;SDS011;9308;48.550;9.108;2022-08-01T09:58:07;4.40;;;4.00;;
18360;SDS011;9308;48.550;9.108;2022-08-01T10:00:34;5.03;;;3.90;;
18360;SDS011;9308;48.550;9.108;2022-08-01T10:03:00;3.73;;;3.40;;
18360;SDS011;9308;48.550;9.108;2022-08-01T10:05:44;10.17;;;4.43;;
18360;SDS011;9308;48.550;9.108;2022-08-01T10:08:10;4.27;;;3.20;;
18360;SDS011;9308;48.550;9.108;2022-08-01T10:10:37;4.10;;;3.80;;
18360;SDS011;9308;48.550;9.108;2022-08-01T10:13:02;3.93;;;3.63;;
18360;SDS011;9308;48.550;9.108;2022-08-01T10:15:29;4.47;;;4.07;;
18360;SDS011;9308;48.550;9.108;2022-08-01T10:17:57;4.10;;;3.77;;
18360;SDS011;9308;48.550;9.108;2022-08-01T10:20:29;4.10;;;3.80;;
18360;SDS011;9308;48.550;9.108;2022-08-01T10:22:57;3.83;;;3.63;;
18360;SDS011;9308;48.550;9.108;2022-08-01T10:25:24;3.60;;;3.30;;
18360;SDS011;9308;48.550;9.108;2022-08-01T10:27:53;4.20;;;3.80;;
18360;SDS011;9308;48.550;9.108;2022-08-01T10:30:23;3.83;;;3.63;;
18360;SDS011;9308;48.550;9.108;2022-08-01T10:32:51;3.90;;;3.60;;
18360;SDS011;9308;48.550;9.108;2022-08-01T10:35:17;3.70;;;3.20;;
18360;SDS011;9308;48.550;9.108;2022-08-01T10:37:44;3.90;;;3.60;;
18360;SDS011;9308;48.550;9.108;2022-08-01T10:40:14;3.60;;;3.30;;
18360;SDS011;9308;48.550;9.108;2022-08-01T10:42:41;3.90;;;3.60;;
18360;SDS011;9308;48.550;9.108;2022-08-01T10:45:08;4.13;;;3.23;;
18360;SDS011;9308;48.550;9.108;2022-08-01T10:50:35;3.70;;;3.40;;
18360;SDS011;9308;48.550;9.108;2022-08-01T10:53:21;3.80;;;3.50;;
18360;SDS011;9308;48.550;9.108;2022-08-01T10:55:49;3.80;;;3.50;;
18360;SDS011;9308;48.550;9.108;2022-08-01T10:58:21;3.90;;;3.60;;
18360;SDS011;9308;48.550;9.108;2022-08-01T11:00:48;4.00;;;3.70;;
18360;SDS011;9308;48.550;9.108;2022-08-01T11:03:13;3.60;;;3.30;;
18360;SDS011;9308;48.550;9.108;2022-08-01T11:05:39;4.17;;;3.63;;
18360;SDS011;9308;48.550;9.108;2022-08-01T11:10:47;4.07;;;3.77;;
18360;SDS011;9308;48.550;9.108;2022-08-01T11:13:12;3.60;;;3.40;;
18360;SDS011;9308;48.550;9.108;2022-08-01T11:15:39;5.03;;;3.97;;
18360;SDS011;9308;48.550;9.108;2022-08-01T11:20:56;4.60;;;4.10;;
18360;SDS011;9308;48.550;9.108;2022-08-01T11:23:24;4.70;;;4.40;;
18360;SDS011;9308;48.550;9.108;2022-08-01T11:30:54;5.83;;;4.97;;
18360;SDS011;9308;48.550;9.108;2022-08-01T11:38:41;4.53;;;4.23;;
18360;SDS011;9308;48.550;9.108;2022-08-01T11:41:11;6.00;;;5.40;;
18360;SDS011;9308;48.550;9.108;2022-08-01T11:43:57;5.80;;;5.40;;
18360;SDS011;9308;48.550;9.108;2022-08-01T11:51:56;4.70;;;4.40;;
18360;SDS011;9308;48.550;9.108;2022-08-01T11:54:32;5.40;;;4.50;;
18360;SDS011;9308;48.550;9.108;2022-08-01T11:57:04;4.63;;;4.30;;
18360;SDS011;9308;48.550;9.108;2022-08-01T11:59:35;5.17;;;4.67;;
18360;SDS011;9308;48.550;9.108;2022-08-01T12:02:02;4.40;;;4.10;;
18360;SDS011;9308;48.550;9.108;2022-08-01T12:04:47;4.80;;;4.40;;
18360;SDS011;9308;48.550;9.108;2022-08-01T12:07:15;4.00;;;3.73;;
18360;SDS011;9308;48.550;9.108;2022-08-01T12:09:41;4.37;;;4.07;;
18360;SDS011;9308;48.550;9.108;2022-08-01T12:12:06;4.50;;;4.20;;
18360;SDS011;9308;48.550;9.108;2022-08-01T12:14:32;4.00;;;3.70;;
18360;SDS011;9308;48.550;9.108;2022-08-01T12:16:58;4.40;;;4.10;;
18360;SDS011;9308;48.550;9.108;2022-08-01T12:19:23;4.23;;;3.93;;
18360;SDS011;9308;48.550;9.108;2022-08-01T12:24:38;4.93;;;4.43;;
18360;SDS011;9308;48.550;9.108;2022-08-01T12:27:05;4.30;;;4.00;;
18360;SDS011;9308;48.550;9.108;2022-08-01T12:32:00;4.63;;;4.33;;
18360;SDS011;9308;48.550;9.108;2022-08-01T12:34:26;4.13;;;3.83;;
18360;SDS011;9308;48.550;9.108;2022-08-01T12:36:58;4.87;;;4.30;;
18360;SDS011;9308;48.550;9.108;2022-08-01T12:39:31;4.90;;;4.50;;
18360;SDS011;9308;48.550;9.108;2022-08-01T12:41:58;7.03;;;5.13;;
18360;SDS011;9308;48.550;9.108;2022-08-01T12:44:24;4.80;;;4.50;;
18360;SDS011;9308;48.550;9.108;2022-08-01T12:46:50;4.90;;;4.60;;
18360;SDS011;9308;48.550;9.108;2022-08-01T12:49:16;5.10;;;4.70;;
18360;SDS011;9308;48.550;9.108;2022-08-01T12:51:42;4.90;;;4.60;;
18360;SDS011;9308;48.550;9.108;2022-08-01T12:54:07;5.27;;;4.97;;
18360;SDS011;9308;48.550;9.108;2022-08-01T12:56:35;5.07;;;4.60;;
18360;SDS011;9308;48.550;9.108;2022-08-01T12:59:01;5.27;;;4.77;;
18360;SDS011;9308;48.550;9.108;2022-08-01T13:01:44;4.60;;;4.30;;
18360;SDS011;9308;48.550;9.108;2022-08-01T13:04:10;5.10;;;4.60;;
18360;SDS011;9308;48.550;9.108;2022-08-01T13:06:35;4.37;;;4.07;;
18360;SDS011;9308;48.550;9.108;2022-08-01T13:09:07;4.70;;;4.27;;
18360;SDS011;9308;48.550;9.108;2022-08-01T13:11:35;4.40;;;4.00;;
18360;SDS011;9308;48.550;9.108;2022-08-01T13:14:01;4.17;;;3.80;;
18360;SDS011;9308;48.550;9.108;2022-08-01T13:16:27;5.03;;;3.80;;
18360;SDS011;9308;48.550;9.108;2022-08-01T13:18:53;4.20;;;3.90;;
18360;SDS011;9308;48.550;9.108;2022-08-01T13:21:25;4.40;;;4.10;;
18360;SDS011;9308;48.550;9.108;2022-08-01T13:24:05;4.40;;;4.00;;
18360;SDS011;9308;48.550;9.108;2022-08-01T13:29:06;4.00;;;3.70;;
18360;SDS011;9308;48.550;9.108;2022-08-01T13:31:33;4.30;;;4.00;;
18360;SDS011;9308;48.550;9.108;2022-08-01T13:33:59;4.13;;;3.83;;
18360;SDS011;9308;48.550;9.108;2022-08-01T13:36:25;4.47;;;4.17;;
18360;SDS011;9308;48.550;9.108;2022-08-01T13:38:53;4.60;;;4.10;;
18360;SDS011;9308;48.550;9.108;2022-08-01T13:41:37;4.23;;;3.93;;
18360;SDS011;9308;48.550;9.108;2022-08-01T13:44:03;4.60;;;4.30;;
18360;SDS011;9308;48.550;9.108;2022-08-01T13:46:28;4.20;;;3.80;;
18360;SDS011;9308;48.550;9.108;2022-08-01T13:48:54;4.00;;;3.70;;
18360;SDS011;9308;48.550;9.108;2022-08-01T13:51:19;4.23;;;3.93;;
18360;SDS011;9308;48.550;9.108;2022-08-01T13:53:44;5.80;;;4.80;;
18360;SDS011;9308;48.550;9.108;2022-08-01T13:56:10;4.60;;;4.10;;
18360;SDS011;9308;48.550;9.108;2022-08-01T13:58:36;4.40;;;4.10;;
18360;SDS011;9308;48.550;9.108;2022-08-01T14:01:02;5.13;;;4.73;;
18360;SDS011;9308;48.550;9.108;2022-08-01T14:03:27;6.73;;;5.20;;
18360;SDS011;9308;48.550;9.108;2022-08-01T14:05:53;4.50;;;4.10;;
18360;SDS011;9308;48.550;9.108;2022-08-01T14:08:18;4.27;;;3.87;;
18360;SDS011;9308;48.550;9.108;2022-08-01T14:10:44;4.70;;;4.30;;
18360;SDS011;9308;48.550;9.108;2022-08-01T14:13:09;4.07;;;3.70;;
18360;SDS011;9308;48.550;9.108;2022-08-01T14:15:35;3.83;;;3.53;;
18360;SDS011;9308;48.550;9.108;2022-08-01T14:18:00;3.70;;;3.30;;
18360;SDS011;9308;48.550;9.108;2022-08-01T14:20:26;4.90;;;3.00;;
18360;SDS011;9308;48.550;9.108;2022-08-01T14:22:52;3.90;;;3.60;;
18360;SDS011;9308;48.550;9.108;2022-08-01T14:25:17;4.37;;;4.00;;
18360;SDS011;9308;48.550;9.108;2022-08-01T14:27:43;4.13;;;3.83;;
18360;SDS011;9308;48.550;9.108;2022-08-01T14:30:10;4.80;;;4.00;;
18360;SDS011;9308;48.550;9.108;2022-08-01T14:32:36;4.13;;;3.77;;
18360;SDS011;9308;48.550;9.108;2022-08-01T14:35:02;4.20;;;3.90;;
18360;SDS011;9308;48.550;9.108;2022-08-01T14:37:30;5.33;;;4.70;;
18360;SDS011;9308;48.550;9.108;2022-08-01T14:39:56;4.80;;;4.40;;
18360;SDS011;9308;48.550;9.108;2022-08-01T14:42:22;4.63;;;4.17;;
18360;SDS011;9308;48.550;9.108;2022-08-01T14:44:47;5.43;;;4.07;;
18360;SDS011;9308;48.550;9.108;2022-08-01T14:47:13;3.90;;;3.60;;
18360;SDS011;9308;48.550;9.108;2022-08-01T14:49:38;4.07;;;3.47;;
18360;SDS011;9308;48.550;9.108;2022-08-01T14:52:03;4.00;;;3.70;;
18360;SDS011;9308;48.550;9.108;2022-08-01T14:54:29;4.37;;;4.07;;
18360;SDS011;9308;48.550;9.108;2022-08-01T14:56:55;5.63;;;3.73;;
18360;SDS011;9308;48.550;9.108;2022-08-01T14:59:20;3.40;;;3.20;;
18360;SDS011;9308;48.550;9.108;2022-08-01T15:01:46;4.60;;;4.30;;
18360;SDS011;9308;48.550;9.108;2022-08-01T15:04:11;6.10;;;4.57;;
18360;SDS011;9308;48.550;9.108;2022-08-01T15:06:37;4.47;;;4.17;;
18360;SDS011;9308;48.550;9.108;2022-08-01T15:09:03;4.87;;;4.47;;
18360;SDS011;9308;48.550;9.108;2022-08-01T15:11:28;4.57;;;4.27;;
18360;SDS011;9308;48.550;9.108;2022-08-01T15:13:54;4.17;;;3.87;;
18360;SDS011;9308;48.550;9.108;2022-08-01T15:16:38;4.07;;;3.87;;
18360;SDS011;9308;48.550;9.108;2022-08-01T15:19:03;5.07;;;4.73;;
18360;SDS011;9308;48.550;9.108;2022-08-01T15:21:29;4.33;;;4.03;;
18360;SDS011;9308;48.550;9.108;2022-08-01T15:23:55;4.40;;;4.10;;
18360;SDS011;9308;48.550;9.108;2022-08-01T15:26:20;5.47;;;4.23;;
18360;SDS011;9308;48.550;9.108;2022-08-01T15:28:46;4.40;;;4.00;;
18360;SDS011;9308;48.550;9.108;2022-08-01T15:31:11;5.90;;;4.10;;
18360;SDS011;9308;48.550;9.108;2022-08-01T15:33:37;6.40;;;4.27;;
18360;SDS011;9308;48.550;9.108;2022-08-01T15:36:03;4.73;;;4.10;;
18360;SDS011;9308;48.550;9.108;2022-08-01T15:38:29;4.70;;;3.30;;
18360;SDS011;9308;48.550;9.108;2022-08-01T15:40:54;3.97;;;3.60;;
18360;SDS011;9308;48.550;9.108;2022-08-01T15:43:20;4.00;;;3.70;;
18360;SDS011;9308;48.550;9.108;2022-08-01T15:45:45;4.17;;;3.87;;
18360;SDS011;9308;48.550;9.108;2022-08-01T15:48:10;3.90;;;3.60;;
18360;SDS011;9308;48.550;9.108;2022-08-01T15:50:36;4.50;;;4.20;;
18360;SDS011;9308;48.550;9.108;2022-08-01T15:53:03;5.00;;;4.50;;